Time;durP1;ratioP1;P1;durP2;ratioP2;P2;SDS_P1;SDS_P2;PMS_P1;PMS_P2;Temp;Humidity;BMP_temperature;BMP_pressure;BME280_temperature;BME280_humidity;BME280_pressure;Samples;Min_cycle;Max_cycle;Signal;HPM_P1;HPM_P2
2021/09/03 00:00:32;;;;;;;;;38.33;32.33;;;;;14.56;89.34;100341.13;6785477;19;3591878;-55
2021/09/03 00:03:00;;;;;;;;;28.50;24.00;;;;;14.55;89.32;100350.19;6741851;19;2827258;-54
2021/09/03 00:05:29;;;;;;;;;18.00;17.00;;;;;14.87;87.64;100339.00;6753409;19;2481509;-54
2021/09/03 00:07:56;;;;;;;;;21.00;18.00;;;;;14.88;87.11;100344.34;6747694;19;2498143;-54
2021/09/03 00:10:24;;;;;;;;;21.00;19.67;;;;;14.78;87.41;100331.56;6744237;19;3565801;-56
2021/09/03 00:12:52;;;;;;;;;17.00;15.00;;;;;14.78;87.62;100339.66;6753039;19;2819954;-56
2021/09/03 00:15:21;;;;;;;;;16.33;16.33;;;;;14.68;88.18;100328.59;6745959;19;3540877;-54
2021/09/03 00:17:49;;;;;;;;;18.00;18.00;;;;;14.60;88.95;100328.28;6746600;19;2835590;-56
2021/09/03 00:20:17;;;;;;;;;17.00;17.00;;;;;14.50;89.68;100323.44;6744306;19;2820026;-56
2021/09/03 00:22:45;;;;;;;;;21.00;16.00;;;;;14.33;90.36;100328.28;6751398;19;2835618;-56
2021/09/03 00:25:14;;;;;;;;;16.00;16.00;;;;;14.68;88.46;100325.91;6746153;19;2852375;-54
2021/09/03 00:27:41;;;;;;;;;23.00;20.50;;;;;14.54;88.84;100317.88;6750883;19;2841833;-54
2021/09/03 00:30:10;;;;;;;;;21.00;15.00;;;;;14.67;88.51;100325.03;6745308;19;2491866;-56
2021/09/03 00:32:38;;;;;;;;;19.00;17.00;;;;;14.43;89.76;100319.44;6754579;19;2824161;-56
2021/09/03 00:35:08;;;;;;;;;16.00;14.33;;;;;14.48;90.23;100319.09;6745617;19;3526216;-56
2021/09/03 00:37:37;;;;;;;;;18.00;18.00;;;;;14.69;89.84;100323.13;6778067;19;2835622;-54
2021/09/03 00:40:07;;;;;;;;;19.50;18.00;;;;;14.77;88.97;100317.19;6744577;19;2831455;-56
2021/09/03 00:42:35;;;;;;;;;18.00;18.00;;;;;14.89;87.40;100318.16;6746174;19;2491898;-56
2021/09/03 00:45:04;;;;;;;;;20.00;18.00;;;;;14.79;87.46;100319.75;6747195;19;2489771;-56
2021/09/03 00:47:33;;;;;;;;;17.00;17.00;;;;;14.83;88.18;100324.84;6748911;19;2827257;-56
2021/09/03 00:50:04;;;;;;;;;18.00;18.00;;;;;14.83;88.27;100324.00;6775016;19;3568902;-56
2021/09/03 00:52:33;;;;;;;;;20.50;19.50;;;;;14.85;87.69;100327.44;6743966;19;2830398;-56
2021/09/03 00:55:01;;;;;;;;;21.00;18.50;;;;;14.80;88.20;100327.78;6745551;19;2489779;-55
2021/09/03 00:57:30;;;;;;;;;18.50;15.50;;;;;14.89;87.35;100323.56;6743868;19;2820037;-56
2021/09/03 00:59:58;;;;;;;;;20.00;20.00;;;;;14.64;88.60;100319.84;6741855;19;2831455;-56
2021/09/03 01:02:27;;;;;;;;;22.00;20.00;;;;;14.48;89.43;100321.81;6742838;19;2830535;-54
2021/09/03 01:04:55;;;;;;;;;23.50;18.00;;;;;14.95;87.51;100317.72;6747578;19;2842910;-56
2021/09/03 01:07:24;;;;;;;;;19.00;15.00;;;;;15.00;86.94;100326.38;6747143;19;2496009;-55
2021/09/03 01:09:52;;;;;;;;;23.00;18.00;;;;;14.88;87.60;100324.53;6744791;19;2844969;-55
2021/09/03 01:12:19;;;;;;;;;21.00;18.00;;;;;14.74;88.15;100321.91;6744221;19;2493930;-55
2021/09/03 01:14:48;;;;;;;;;20.50;19.00;;;;;14.94;87.38;100321.41;6740991;19;2839768;-57
2021/09/03 01:17:16;;;;;;;;;19.00;18.00;;;;;14.98;87.40;100328.34;6748589;19;2833531;-56
2021/09/03 01:19:45;;;;;;;;;17.50;16.00;;;;;15.01;86.89;100321.81;6747812;19;2827289;-56
2021/09/03 01:22:13;;;;;;;;;20.00;17.00;;;;;14.92;87.32;100312.53;6753893;19;2827249;-57
2021/09/03 01:24:40;;;;;;;;;24.50;18.50;;;;;14.76;88.01;100314.56;6753163;19;2489771;-56
2021/09/03 01:27:09;;;;;;;;;20.00;20.00;;;;;14.73;88.27;100314.78;6751176;19;2719962;-55
2021/09/03 01:29:36;;;;;;;;;20.00;20.00;;;;;14.70;88.08;100314.03;6782826;19;2485636;-57
2021/09/03 01:32:04;;;;;;;;;19.00;16.50;;;;;14.71;88.50;100310.34;6752464;19;2498100;-57
2021/09/03 01:34:33;;;;;;;;;19.00;19.00;;;;;14.93;87.36;100306.16;6749064;19;2835586;-56
2021/09/03 01:37:00;;;;;;;;;19.00;19.00;;;;;14.97;87.73;100299.56;6754838;19;2496009;-57
2021/09/03 01:39:28;;;;;;;;;15.50;15.50;;;;;14.65;89.50;100299.09;6753726;19;2498135;-57
2021/09/03 01:41:56;;;;;;;;;21.50;18.00;;;;;14.60;89.69;100301.25;6750269;19;2832613;-55
2021/09/03 01:44:24;;;;;;;;;20.00;20.00;;;;;14.60;89.99;100302.09;6752858;19;2485601;-56
2021/09/03 01:46:51;;;;;;;;;17.50;17.50;;;;;14.76;89.03;100298.34;6749973;19;2489779;-56
2021/09/03 01:49:19;;;;;;;;;22.00;20.00;;;;;14.94;88.82;100302.47;6750472;19;2491846;-51
2021/09/03 01:51:47;;;;;;;;;23.00;19.50;;;;;14.87;88.06;100303.88;6750679;19;2830410;-54
2021/09/03 01:54:16;;;;;;;;;22.00;19.33;;;;;14.69;90.28;100296.09;6766707;19;3563723;-53
2021/09/03 01:56:44;;;;;;;;;23.33;20.33;;;;;14.71;89.62;100299.53;6746551;19;3564728;-56
2021/09/03 01:59:13;;;;;;;;;20.00;19.00;;;;;14.57;90.42;100296.91;6748592;19;2834567;-54
2021/09/03 02:01:41;;;;;;;;;15.67;15.67;;;;;14.58;90.54;100303.19;6749636;19;3553270;-55
2021/09/03 02:04:10;;;;;;;;;23.00;20.00;;;;;14.66;90.16;100288.16;6746070;19;2835582;-55
2021/09/03 02:06:38;;;;;;;;;20.67;18.00;;;;;14.85;88.28;100293.19;6753535;19;2831412;-56
2021/09/03 02:09:06;;;;;;;;;19.50;17.50;;;;;14.71;89.40;100299.53;6782399;19;2485628;-55
2021/09/03 02:11:33;;;;;;;;;19.00;18.00;;;;;14.51;90.77;100291.91;6750004;19;2496025;-54
2021/09/03 02:14:02;;;;;;;;;24.00;20.00;;;;;14.76;88.81;100290.25;6750648;19;2844969;-56
2021/09/03 02:16:31;;;;;;;;;22.50;19.00;;;;;14.68;89.96;100283.53;6747429;19;2833567;-56
2021/09/03 02:19:00;;;;;;;;;22.67;18.67;;;;;14.83;88.52;100278.03;6749084;19;3571013;-56
2021/09/03 02:21:27;;;;;;;;;16.00;16.00;;;;;14.79;88.35;100280.06;6749999;19;2496032;-56
2021/09/03 02:23:56;;;;;;;;;24.00;19.00;;;;;14.68;89.93;100270.00;6748019;19;2837709;-56
2021/09/03 02:26:24;;;;;;;;;18.50;18.50;;;;;14.67;89.46;100281.81;6746598;19;2837686;-56
2021/09/03 02:28:52;;;;;;;;;22.67;19.33;;;;;14.35;91.00;100275.88;6748816;19;2839749;-56
2021/09/03 02:31:20;;;;;;;;;18.50;16.50;;;;;14.94;88.24;100278.16;6782999;19;2489866;-56
2021/09/03 02:33:49;;;;;;;;;27.50;20.00;;;;;14.64;90.28;100279.31;6747863;19;2848113;-56
2021/09/03 02:36:17;;;;;;;;;18.50;17.00;;;;;14.80;90.03;100279.13;6751512;19;2498141;-56
2021/09/03 02:38:45;;;;;;;;;17.00;15.50;;;;;14.80;89.62;100273.72;6748306;19;2493934;-56
2021/09/03 02:41:12;;;;;;;;;18.50;17.00;;;;;14.74;90.07;100274.13;6750197;19;2498092;-56
2021/09/03 02:43:40;;;;;;;;;20.00;20.00;;;;;14.63;90.76;100258.66;6748475;19;2498092;-56
2021/09/03 02:46:08;;;;;;;;;17.50;17.50;;;;;14.48;91.74;100262.38;6746649;19;2829377;-53
2021/09/03 02:48:37;;;;;;;;;19.00;18.00;;;;;14.38;92.55;100261.28;6746268;19;2827309;-55
2021/09/03 02:51:05;;;;;;;;;18.00;18.00;;;;;14.48;91.95;100262.38;6750520;19;2830371;-56
2021/09/03 02:53:33;;;;;;;;;25.00;21.00;;;;;14.36;92.44;100265.94;6748590;19;2498238;-56
2021/09/03 02:56:01;;;;;;;;;18.67;14.33;;;;;14.16;94.02;100265.41;6750094;19;3543911;-56
2021/09/03 02:58:29;;;;;;;;;19.00;18.00;;;;;14.08;95.26;100265.06;6781235;19;2833544;-56
2021/09/03 03:00:58;;;;;;;;;21.00;19.00;;;;;14.03;95.92;100260.00;6747644;19;2827289;-55
2021/09/03 03:03:27;;;;;;;;;25.00;24.50;;;;;13.97;96.88;100265.78;6743419;19;2841872;-55
2021/09/03 03:05:56;;;;;;;;;29.00;26.00;;;;;14.05;96.87;100257.19;6748502;19;2839825;-56
2021/09/03 03:08:25;;;;;;;;;46.33;39.67;;;;;14.35;95.26;100258.78;6780024;19;2855429;-56
2021/09/03 03:10:54;;;;;;;;;31.00;30.67;;;;;14.43;94.50;100262.72;6788548;19;3566811;-56
2021/09/03 03:13:27;;;;;;;;;42.50;35.00;;;;;14.21;95.62;100257.88;6782090;19;2845991;-56
2021/09/03 03:15:56;;;;;;;;;28.67;27.67;;;;;14.45;94.61;100254.47;6754617;19;3580340;-55
2021/09/03 03:18:24;;;;;;;;;20.00;19.50;;;;;14.39;94.29;100260.31;6741585;19;2826212;-56
2021/09/03 03:20:52;;;;;;;;;19.00;18.00;;;;;14.11;96.23;100259.47;6744904;19;2489759;-56
2021/09/03 03:23:21;;;;;;;;;21.50;21.00;;;;;14.10;96.71;100262.28;6748388;19;2841841;-56
2021/09/03 03:25:50;;;;;;;;;20.00;19.00;;;;;14.09;96.88;100263.25;6748488;19;2835650;-55
2021/09/03 03:28:17;;;;;;;;;22.00;20.00;;;;;14.26;95.78;100260.28;6751790;19;2839777;-56
2021/09/03 03:30:46;;;;;;;;;21.00;17.50;;;;;14.16;95.43;100260.03;6745756;19;2831432;-56
2021/09/03 03:33:14;;;;;;;;;17.00;17.00;;;;;14.77;91.13;100267.63;6750213;19;3555408;-56
2021/09/03 03:35:42;;;;;;;;;20.00;15.00;;;;;14.25;93.83;100269.34;6751587;19;2498107;-56
2021/09/03 03:38:10;;;;;;;;;17.50;16.00;;;;;14.44;92.67;100259.03;6747983;19;2819970;-57
2021/09/03 03:40:38;;;;;;;;;16.00;14.50;;;;;14.35;92.72;100264.19;6749911;19;2811661;-54
2021/09/03 03:43:06;;;;;;;;;21.00;20.00;;;;;14.28;94.16;100264.59;6747026;19;2826343;-56
2021/09/03 03:45:34;;;;;;;;;16.50;16.50;;;;;14.23;94.30;100260.47;6751043;19;2481441;-56
2021/09/03 03:48:04;;;;;;;;;64.33;48.67;;;;;14.57;91.34;100264.47;6747050;19;3651179;-56
2021/09/03 03:50:32;;;;;;;;;110.00;91.00;;;;;14.48;92.31;100262.38;6778097;19;1934612;-56
2021/09/03 03:53:01;;;;;;;;;75.00;56.33;;;;;14.30;93.27;100263.63;6743934;19;3638680;-55
2021/09/03 03:55:30;;;;;;;;;25.33;24.33;;;;;14.50;91.67;100260.44;6745166;19;2829423;-56
2021/09/03 03:58:00;;;;;;;;;51.00;42.00;;;;;14.39;92.82;100257.59;6774446;19;2844041;-56
2021/09/03 04:00:28;;;;;;;;;18.50;18.50;;;;;14.59;90.99;100262.56;6777375;19;2829372;-53
2021/09/03 04:02:57;;;;;;;;;23.50;17.00;;;;;14.47;91.54;100258.81;6742268;19;2829372;-55
2021/09/03 04:05:25;;;;;;;;;20.00;18.50;;;;;14.32;92.93;100258.97;6744409;19;2829336;-56
2021/09/03 04:07:53;;;;;;;;;21.00;18.00;;;;;14.42;92.32;100263.66;6745343;19;2496037;-55
2021/09/03 04:10:22;;;;;;;;;18.67;17.67;;;;;14.50;92.81;100252.31;6748224;19;3543971;-56
2021/09/03 04:12:51;;;;;;;;;21.33;20.33;;;;;14.62;91.31;100256.94;6742574;19;3572016;-56
2021/09/03 04:15:19;;;;;;;;;17.50;17.50;;;;;14.52;91.85;100258.50;6743404;19;2831451;-55
2021/09/03 04:17:48;;;;;;;;;17.33;16.00;;;;;14.59;90.94;100257.16;6740625;19;3548109;-56
2021/09/03 04:20:16;;;;;;;;;19.00;18.00;;;;;14.69;90.02;100258.25;6745384;19;2498199;-54
2021/09/03 04:22:44;;;;;;;;;19.67;18.67;;;;;14.80;89.46;100256.63;6752996;19;2828291;-55
2021/09/03 04:25:12;;;;;;;;;21.00;16.67;;;;;14.67;89.90;100268.28;6779342;19;2831421;-56
2021/09/03 04:27:42;;;;;;;;;20.67;17.00;;;;;14.57;91.41;100264.47;6777062;19;3563738;-56
2021/09/03 04:30:11;;;;;;;;;22.00;19.00;;;;;14.59;91.53;100262.56;6744188;19;2831827;-56
2021/09/03 04:32:40;;;;;;;;;21.33;15.33;;;;;14.64;91.52;100267.63;6743746;19;3560589;-53
2021/09/03 04:35:09;;;;;;;;;19.50;18.00;;;;;14.57;91.70;100264.47;6746164;19;2489794;-56
2021/09/03 04:37:50;;;;;;;;;17.00;14.50;;;;;14.76;90.32;100257.81;6747086;19;2821027;-56
2021/09/03 04:40:20;;;;;;;;;22.00;16.50;;;;;14.73;90.78;100266.13;6743547;19;2827285;-56
2021/09/03 04:42:48;;;;;;;;;19.50;15.00;;;;;14.79;90.44;100263.00;6744893;19;2493969;-55
2021/09/03 04:45:17;;;;;;;;;18.00;16.00;;;;;14.70;91.20;100259.09;6745168;19;2485596;-54
2021/09/03 04:47:45;;;;;;;;;19.00;16.00;;;;;14.62;91.49;100259.63;6745617;19;2487668;-56
2021/09/03 04:50:13;;;;;;;;;19.50;17.00;;;;;14.78;91.43;100255.88;6742164;19;2481521;-60
2021/09/03 04:52:41;;;;;;;;;13.50;13.50;;;;;14.81;90.47;100261.06;6749507;19;2498123;-60
2021/09/03 04:55:09;;;;;;;;;19.50;17.50;;;;;14.79;91.12;100255.75;6749801;19;2824160;-60
2021/09/03 04:57:40;;;;;;;;;19.33;14.33;;;;;14.77;91.13;100263.13;6740023;19;3542893;-59
2021/09/03 05:00:11;;;;;;;;;20.00;19.00;;;;;14.87;90.96;100263.31;6748069;19;2481534;-59
2021/09/03 05:02:40;;;;;;;;;20.67;18.67;;;;;14.94;89.47;100256.50;6743852;19;3568906;-59
2021/09/03 05:05:08;;;;;;;;;19.00;14.00;;;;;15.10;88.23;100262.56;6753822;19;2496064;-59
2021/09/03 05:07:37;;;;;;;;;13.00;13.00;;;;;15.23;88.42;100267.09;6739292;19;3529308;-59
2021/09/03 05:10:08;;;;;;;;;20.50;15.50;;;;;14.60;94.36;100268.81;6781167;19;2814838;-59
2021/09/03 05:12:39;;;;;;;;;20.00;18.00;;;;;14.45;97.04;100262.59;6742579;19;2837673;-59
2021/09/03 05:15:12;;;;;;;;;18.50;17.50;;;;;14.49;97.18;100261.41;6745181;19;2493961;-59
2021/09/03 05:17:48;;;;;;;;;22.50;18.00;;;;;14.43;97.43;100267.25;6742020;19;2838735;-59
2021/09/03 05:20:17;;;;;;;;;21.00;20.00;;;;;14.57;95.97;100261.78;6743917;19;2489907;-59
2021/09/03 05:22:46;;;;;;;;;18.33;16.67;;;;;14.82;94.32;100255.53;6742487;19;3563678;-59
2021/09/03 05:25:15;;;;;;;;;16.33;15.00;;;;;14.90;92.47;100255.88;6737923;19;3535555;-59
2021/09/03 05:27:43;;;;;;;;;17.00;14.67;;;;;14.81;92.81;100259.22;6741758;19;3550149;-59
2021/09/03 05:30:14;;;;;;;;;19.00;17.50;;;;;14.96;90.99;100265.38;6745418;19;2475193;-59
2021/09/03 05:32:41;;;;;;;;;20.00;17.00;;;;;14.84;92.21;100260.84;6746464;19;2824121;-59
2021/09/03 05:35:11;;;;;;;;;15.33;15.33;;;;;14.96;89.96;100265.38;6742703;19;3552305;-59
2021/09/03 05:37:40;;;;;;;;;17.00;15.50;;;;;15.10;88.93;100261.69;6737448;19;2819327;-59
2021/09/03 05:40:09;;;;;;;;;16.00;13.50;;;;;15.14;89.54;100265.94;6749031;19;2809617;-59
2021/09/03 05:42:37;;;;;;;;;19.00;16.00;;;;;14.98;90.50;100258.03;6741329;19;3558873;-59
2021/09/03 05:45:06;;;;;;;;;19.00;18.00;;;;;14.80;91.63;100259.34;6741698;19;2485601;-59
2021/09/03 05:47:35;;;;;;;;;20.50;19.00;;;;;14.65;92.18;100254.00;6742054;19;2828291;-59
2021/09/03 05:50:02;;;;;;;;;19.00;16.00;;;;;14.61;92.26;100262.44;6743209;19;2490166;-60
2021/09/03 05:52:30;;;;;;;;;19.00;17.00;;;;;14.66;92.25;100257.56;6750034;19;2837705;-59
2021/09/03 05:54:58;;;;;;;;;23.00;20.50;;;;;14.70;92.15;100262.66;6776937;19;2489787;-59
2021/09/03 05:57:27;;;;;;;;;22.00;21.00;;;;;15.22;90.71;100255.41;6741103;19;2818928;-60
2021/09/03 05:59:55;;;;;;;;;22.00;21.00;;;;;15.15;90.35;100257.69;6741559;19;2827245;-61
2021/09/03 06:02:23;;;;;;;;;25.50;24.50;;;;;15.17;88.61;100262.13;6746924;19;2493942;-60
2021/09/03 06:04:51;;;;;;;;;21.00;19.50;;;;;15.13;89.30;100262.34;6748184;19;2483521;-61
2021/09/03 06:07:19;;;;;;;;;26.00;21.00;;;;;15.20;90.13;100261.91;6747307;19;2832498;-62
2021/09/03 06:09:48;;;;;;;;;16.50;16.50;;;;;15.23;89.55;100257.13;6747921;19;2827738;-62
2021/09/03 06:12:16;;;;;;;;;22.00;18.50;;;;;15.42;88.66;100256.66;6757330;19;2839777;-61
2021/09/03 06:14:43;;;;;;;;;20.50;17.00;;;;;15.31;90.29;100265.56;6749747;19;2494009;-60
2021/09/03 06:17:13;;;;;;;;;21.33;16.67;;;;;15.50;88.13;100258.81;6746921;19;3559572;-60
2021/09/03 06:19:41;;;;;;;;;20.33;17.33;;;;;15.49;88.65;100255.25;6747660;19;3562672;-61
2021/09/03 06:22:10;;;;;;;;;20.00;18.00;;;;;15.50;88.91;100254.25;6751001;19;2826256;-61
2021/09/03 06:24:38;;;;;;;;;19.50;19.50;;;;;15.58;87.53;100251.84;6747611;19;2836660;-59
2021/09/03 06:27:09;;;;;;;;;20.00;17.50;;;;;15.72;86.45;100252.75;6747279;19;2825166;-61
2021/09/03 06:29:42;;;;;;;;;19.00;18.00;;;;;15.94;85.00;100260.13;6748148;19;3564760;-61
2021/09/03 06:32:23;;;;;;;;;14.50;13.00;;;;;15.96;83.80;100259.03;6751059;19;2807454;-61
2021/09/03 06:35:03;;;;;;;;;19.50;18.00;;;;;16.11;83.37;100254.28;6750100;19;2489853;-61
2021/09/03 06:37:33;;;;;;;;;20.50;18.50;;;;;16.16;83.09;100262.06;6746098;19;2830754;-61
2021/09/03 06:40:03;;;;;;;;;19.50;16.50;;;;;16.23;82.60;100255.22;6745596;19;2822085;-61
2021/09/03 06:42:32;;;;;;;;;23.00;18.50;;;;;16.37;82.66;100260.44;6749825;19;2846046;-62
2021/09/03 06:45:00;;;;;;;;;19.00;16.50;;;;;16.63;80.81;100257.56;6747685;19;2489803;-61
2021/09/03 06:47:30;;;;;;;;;22.00;19.00;;;;;16.60;80.58;100258.66;6745828;19;2835638;-61
2021/09/03 06:49:58;;;;;;;;;18.50;18.00;;;;;16.75;80.36;100258.47;6748733;19;2834588;-61
2021/09/03 06:52:30;;;;;;;;;20.33;18.33;;;;;17.05;79.01;100255.22;6745877;19;3570982;-61
2021/09/03 06:55:01;;;;;;;;;19.50;17.50;;;;;17.26;77.26;100261.63;6747056;19;2831452;-61
2021/09/03 06:57:30;;;;;;;;;21.00;18.50;;;;;17.23;76.45;100255.59;6746343;19;2832489;-61
2021/09/03 06:59:58;;;;;;;;;20.50;20.50;;;;;17.47;75.21;100261.75;6746321;19;2841931;-61
2021/09/03 07:02:27;;;;;;;;;22.00;19.00;;;;;17.54;74.73;100262.13;6745640;19;2844957;-62
2021/09/03 07:04:55;;;;;;;;;23.50;21.50;;;;;17.76;74.52;100256.66;6745973;19;2839741;-60
2021/09/03 07:07:24;;;;;;;;;18.00;17.00;;;;;17.78;72.50;100265.53;6747319;19;2833495;-60
2021/09/03 07:09:54;;;;;;;;;17.00;13.50;;;;;17.84;69.56;100261.47;6749108;19;2496029;-61
2021/09/03 07:12:24;;;;;;;;;16.00;14.00;;;;;17.77;70.26;100269.25;6746561;19;3541808;-61
2021/09/03 07:14:52;;;;;;;;;18.00;16.00;;;;;18.36;69.28;100259.84;6753930;19;2489771;-61
2021/09/03 07:17:20;;;;;;;;;11.67;11.33;;;;;18.36;69.60;100261.69;6745700;19;3496001;-61
2021/09/03 07:19:49;;;;;;;;;13.33;13.33;;;;;18.35;71.58;100259.94;6780507;19;3527392;-61
2021/09/03 07:22:16;;;;;;;;;7.50;7.50;;;;;18.82;70.00;100250.44;6751623;19;2743943;-61
2021/09/03 07:24:44;;;;;;;;;13.50;13.50;;;;;19.36;68.28;100262.06;6746224;19;2740843;-61
2021/09/03 07:27:12;;;;;;;;;3.00;2.00;;;;;21.01;61.56;100270.47;6783459;19;2739781;-60
2021/09/03 07:29:41;;;;;;;;;21.00;19.00;;;;;20.28;62.87;100263.75;6750343;19;2487822;-60
2021/09/03 07:32:10;;;;;;;;;16.00;14.00;;;;;19.27;66.29;100262.88;6745659;19;3533598;-62
2021/09/03 07:34:38;;;;;;;;;12.33;12.33;;;;;19.55;64.44;100261.28;6752597;19;2805395;-60
2021/09/03 07:37:07;;;;;;;;;14.33;10.67;;;;;19.83;63.53;100259.69;6782434;19;2794994;-60
2021/09/03 07:39:35;;;;;;;;;10.67;8.33;;;;;20.01;62.68;100262.59;6781333;19;2766843;-59
2021/09/03 07:42:04;;;;;;;;;10.00;10.00;;;;;19.91;62.48;100259.84;6783166;19;2786630;-61
2021/09/03 07:44:32;;;;;;;;;10.67;10.67;;;;;20.26;61.74;100269.34;6778455;19;2789783;-61
2021/09/03 07:47:00;;;;;;;;;15.00;10.67;;;;;21.63;59.60;100268.09;6777525;19;2789795;-62
2021/09/03 07:49:30;;;;;;;;;10.40;8.60;;;;;21.38;58.68;100266.94;6807591;19;2767913;-60
2021/09/03 07:51:58;;;;;;;;;8.00;8.00;;;;;20.88;58.79;100269.03;6740846;19;2730408;-59
2021/09/03 07:54:27;;;;;;;;;11.80;10.00;;;;;21.56;56.73;100277.06;6808840;19;2782464;-59
2021/09/03 07:56:57;;;;;;;;;19.00;10.33;;;;;22.13;54.40;100267.66;6778222;19;2825166;-60
2021/09/03 07:59:32;;;;;;;;;7.80;7.80;;;;;22.26;53.77;100266.47;6811793;19;2739797;-61
2021/09/03 08:02:01;;;;;;;;;8.60;7.40;;;;;22.91;50.89;100267.03;6776362;19;2732493;-62
2021/09/03 08:04:31;;;;;;;;;7.00;6.40;;;;;22.48;49.08;100265.97;6809913;19;2737702;-63
2021/09/03 08:06:59;;;;;;;;;7.67;6.00;;;;;22.21;50.93;100260.59;6791261;19;2741836;-63
2021/09/03 08:09:29;;;;;;;;;5.00;5.00;;;;;22.07;51.15;100257.34;6809380;19;2740818;-63
2021/09/03 08:11:57;;;;;;;;;5.33;5.00;;;;;21.36;51.36;100258.00;6783120;19;2746007;-60
2021/09/03 08:14:26;;;;;;;;;5.40;5.00;;;;;21.16;50.96;100246.25;6807505;19;2745995;-59
2021/09/03 08:16:55;;;;;;;;;5.60;5.00;;;;;21.98;49.60;100252.78;6812795;19;2745319;-60
2021/09/03 08:19:24;;;;;;;;;12.00;7.33;;;;;22.44;49.19;100248.16;6778609;19;2762696;-60
2021/09/03 08:21:52;;;;;;;;;3.00;3.00;;;;;22.10;48.19;100251.56;6784704;19;2739792;-60
2021/09/03 08:24:21;;;;;;;;;6.40;5.20;;;;;22.22;46.43;100249.50;6808157;19;2746039;-60
2021/09/03 08:26:49;;;;;;;;;5.00;5.00;;;;;22.40;46.30;100245.88;6751464;19;2739737;-60
2021/09/03 08:29:17;;;;;;;;;7.67;6.67;;;;;23.17;46.06;100244.25;6783901;19;2740113;-59
2021/09/03 08:31:47;;;;;;;;;4.80;4.80;;;;;23.17;45.76;100249.75;6812258;19;2743924;-60
2021/09/03 08:34:17;;;;;;;;;6.60;5.80;;;;;23.31;46.31;100249.16;6812233;19;2746003;-59
2021/09/03 08:36:45;;;;;;;;;10.33;6.00;;;;;23.53;46.19;100249.59;6789425;19;2751207;-61
2021/09/03 08:39:14;;;;;;;;;5.80;5.80;;;;;22.82;45.38;100240.59;6810303;19;2739773;-59
2021/09/03 08:41:42;;;;;;;;;466.00;187.00;;;;;23.45;46.34;100245.78;6782401;19;1951326;-61
2021/09/03 08:44:15;;;;;;;;;44.75;27.25;;;;;23.44;45.03;100241.34;6748122;19;3614803;-60
2021/09/03 08:46:45;;;;;;;;;5.00;5.00;;;;;22.92;46.59;100248.72;6810631;19;2742870;-60
2021/09/03 08:49:14;;;;;;;;;5.20;5.00;;;;;22.35;47.55;100236.28;6811712;19;2746007;-60
2021/09/03 08:51:42;;;;;;;;;4.67;4.67;;;;;21.42;46.91;100245.63;6752019;19;2735652;-60
2021/09/03 08:54:10;;;;;;;;;10.00;6.00;;;;;21.05;49.36;100238.25;6785547;19;2749160;-60
2021/09/03 08:56:39;;;;;;;;;3.00;1.00;;;;;20.77;49.63;100235.47;6787897;19;2737666;-59
2021/09/03 08:59:08;;;;;;;;;6.60;5.20;;;;;20.80;50.28;100240.63;6810969;19;2724120;-59
2021/09/03 09:01:36;;;;;;;;;32.67;14.00;;;;;20.77;51.72;100238.19;6778985;19;3578254;-58
2021/09/03 09:04:17;;;;;;;;;57.75;32.25;;;;;20.90;50.35;100223.34;6750238;19;3609579;-60
2021/09/03 09:07:04;;;;;;;;;15.00;8.67;;;;;20.95;50.23;100221.03;6778728;19;3487643;-60
2021/09/03 09:09:44;;;;;;;;;6.40;5.20;;;;;21.26;48.22;100225.25;6812439;19;2740799;-60
2021/09/03 09:12:17;;;;;;;;;5.80;4.20;;;;;22.25;47.01;100227.31;6811397;19;2740826;-61
2021/09/03 09:15:17;;;;;;;;;4.67;3.33;;;;;23.01;46.24;100228.59;6783710;19;2746020;-61
2021/09/03 09:17:45;;;;;;;;;3.33;3.33;;;;;23.00;45.10;100222.25;6785375;19;2736648;-61
2021/09/03 09:20:17;;;;;;;;;5.00;5.00;;;;;22.57;46.49;100215.78;6786574;19;2746091;-61
2021/09/03 09:23:00;;;;;;;;;4.20;3.60;;;;;23.16;45.68;100217.91;6811349;19;2752248;-61
2021/09/03 09:25:36;;;;;;;;;5.20;5.20;;;;;23.09;45.30;100219.56;6777047;19;2744971;-61
2021/09/03 09:28:16;;;;;;;;;8.33;7.33;;;;;23.41;44.04;100213.41;6783828;19;2741855;-60
2021/09/03 09:30:46;;;;;;;;;5.33;5.00;;;;;22.43;45.73;100216.31;6784915;19;2745999;-60
2021/09/03 09:33:18;;;;;;;;;4.33;4.00;;;;;22.99;45.98;100214.22;6785514;19;2738773;-61
2021/09/03 09:35:49;;;;;;;;;6.00;5.00;;;;;22.76;46.72;100209.22;6784884;19;2741836;-61
2021/09/03 09:38:23;;;;;;;;;7.00;5.20;;;;;22.17;47.69;100212.63;6815653;19;2741833;-61
2021/09/03 09:40:53;;;;;;;;;5.00;5.00;;;;;22.21;47.66;100212.19;6788934;19;2743951;-61
2021/09/03 09:43:30;;;;;;;;;6.80;6.60;;;;;22.21;47.23;100209.47;6814876;19;2729360;-61
2021/09/03 09:46:19;;;;;;;;;7.40;5.80;;;;;23.26;45.27;100210.41;6817918;19;2739753;-60
2021/09/03 09:48:51;;;;;;;;;8.80;6.20;;;;;22.92;46.81;100208.47;6818190;19;2737670;-61
2021/09/03 09:51:48;;;;;;;;;6.80;6.00;;;;;23.70;45.83;100207.53;6817667;19;2746042;-59
2021/09/03 09:54:21;;;;;;;;;5.00;5.00;;;;;23.72;43.98;100204.63;6790855;19;2736644;-60
2021/09/03 09:56:55;;;;;;;;;5.60;5.60;;;;;23.52;44.83;100198.56;6817464;19;2736620;-65
2021/09/03 09:59:28;;;;;;;;;6.00;5.60;;;;;23.06;46.10;100197.97;6816780;19;2735578;-63
2021/09/03 10:02:00;;;;;;;;;6.60;5.00;;;;;22.56;47.90;100197.66;6780770;19;2745995;-65
2021/09/03 10:04:32;;;;;;;;;6.33;5.33;;;;;22.17;48.59;100190.75;6789947;19;2742882;-62
2021/09/03 10:07:03;;;;;;;;;8.40;6.40;;;;;22.05;48.41;100188.25;6815108;19;2741860;-62
2021/09/03 10:09:32;;;;;;;;;6.60;5.40;;;;;22.27;47.91;100180.63;6814825;19;2744989;-64
2021/09/03 10:12:03;;;;;;;;;6.40;6.40;;;;;22.04;47.07;100180.22;6816988;19;2743944;-65
2021/09/03 10:14:34;;;;;;;;;6.67;6.67;;;;;22.38;47.00;100177.66;6791495;19;2739792;-63
2021/09/03 10:17:06;;;;;;;;;7.00;5.33;;;;;22.60;47.09;100178.16;6790105;19;2739789;-64
2021/09/03 10:19:37;;;;;;;;;7.80;6.00;;;;;22.41;47.36;100177.34;6813922;19;2735590;-63
2021/09/03 10:22:08;;;;;;;;;5.67;5.33;;;;;22.32;46.72;100173.66;6788647;19;2730413;-64
2021/09/03 10:24:38;;;;;;;;;7.60;7.60;;;;;22.18;47.84;100173.34;6818280;19;2738696;-63
2021/09/03 10:27:08;;;;;;;;;11.00;7.33;;;;;22.64;46.45;100171.31;6787171;19;2749154;-61
2021/09/03 10:29:44;;;;;;;;;4.00;4.00;;;;;23.73;44.48;100163.34;6790749;19;2744961;-61
2021/09/03 10:32:21;;;;;;;;;9.00;6.00;;;;;23.64;43.21;100169.78;6813788;19;2742913;-61
2021/09/03 10:34:55;;;;;;;;;8.00;6.33;;;;;23.71;43.96;100170.00;6788628;19;2742870;-61
2021/09/03 10:37:33;;;;;;;;;6.33;5.33;;;;;23.59;43.99;100156.59;6790753;19;2726231;-62
2021/09/03 10:40:23;;;;;;;;;7.00;7.00;;;;;24.43;42.77;100167.50;6813580;19;2737709;-64
2021/09/03 10:42:56;;;;;;;;;9.40;6.80;;;;;24.49;44.05;100164.97;6811884;19;2763746;-64
2021/09/03 10:45:29;;;;;;;;;6.60;6.60;;;;;23.94;43.40;100148.31;6781365;19;2738703;-62
2021/09/03 10:48:12;;;;;;;;;9.20;6.20;;;;;24.70;43.12;100161.69;6778472;19;2749153;-64
2021/09/03 10:50:44;;;;;;;;;7.60;7.00;;;;;24.18;43.69;100159.28;6782259;19;2742906;-63
2021/09/03 10:53:17;;;;;;;;;9.60;5.40;;;;;23.59;45.49;100155.72;6814240;19;2751246;-64
2021/09/03 10:56:00;;;;;;;;;15.00;8.80;;;;;23.71;45.74;100154.38;6779988;19;2785573;-63
2021/09/03 10:58:42;;;;;;;;;11.00;7.00;;;;;23.10;45.76;100150.06;6780142;19;2634569;-63
2021/09/03 11:01:11;;;;;;;;;7.00;7.00;;;;;22.96;46.16;100149.69;6817198;19;2740830;-62
2021/09/03 11:03:45;;;;;;;;;6.00;6.00;;;;;22.78;46.70;100143.38;6781625;19;2738773;-63
2021/09/03 11:06:16;;;;;;;;;7.20;7.20;;;;;23.56;47.51;100145.09;6779492;19;2735657;-64
2021/09/03 11:08:46;;;;;;;;;6.80;5.80;;;;;23.75;45.72;100150.34;6776601;19;2744961;-65